B.franklin Reinauer — WDG4684 — position and weather

sailwx.info

Track history (hours):
 
Tides and Currents Weather Stations Pressure Air Temp Water Temp Dewpoint Dewpoint Depression Visibility Wind Speed Wind Dir Waves Ship Positions

B.franklin Reinauer

Owner: Reinauer Transportation Co.,LLC., STATEN ISLAND, NY. More information available from US FCC via Universal Licensing System and Coast Guard Vessel Documentation Center.

Last reported at 2017-Nov-24 00:12 UTC. Time now 2017-Nov-24 11:13 UTC.
Position N 40°29' W 073°45'.

Length 132 m; draft 6.5 m.

Type: . MMSI: 367539090.

Date/timePositionNaut miles runAvg speedWind from/ knotsBaromVisibWave heightAir tempDewpointWater temp
2017-Nov-24 00:12N 40°29' W 073°45'2 9.5
2017-Nov-24 00:00N 40°28' W 073°47'5 9.5
2017-Nov-23 23:30N 40°27' W 073°53'4 8.6
2017-Nov-23 23:00N 40°29' W 073°59'4 8.5
2017-Nov-23 22:30N 40°29' W 074°04'9 7.0
2017-Nov-23 21:16N 40°32' W 074°15'1 3.3
2017-Nov-23 21:00N 40°33' W 074°15'0 0.0
2017-Nov-23 20:30N 40°33' W 074°15'0 0.0
2017-Nov-23 19:58N 40°33' W 074°15'0 0.0
2017-Nov-23 13:05N 40°33' W 074°15'0 0.0
2017-Nov-23 12:47N 40°33' W 074°15'0 0.0
2017-Nov-23 03:28N 40°33' W 074°15'0 0.0
2017-Nov-23 02:41N 40°33' W 074°15'0 0.0
2017-Nov-23 02:16N 40°33' W 074°15'0 0.0
2017-Nov-23 01:59N 40°33' W 074°15'0 0.0
2017-Nov-22 23:16N 40°33' W 074°15'  
2017-Nov-19 19:50N 40°52' W 073°44'3 8.3
2017-Nov-19 19:30N 40°50' W 073°46'1 3.0
2017-Nov-19 19:00N 40°49' W 073°47'0 0.0
2017-Nov-19 18:30N 40°49' W 073°47'0 0.0
2017-Nov-19 15:45N 40°49' W 073°47'0 0.0
2017-Nov-19 15:18N 40°49' W 073°47'0 0.0
2017-Nov-18 23:07N 40°49' W 073°47'0 0.1
2017-Nov-18 22:50N 40°49' W 073°47'0 0.1
2017-Nov-18 22:27N 40°49' W 073°47'1 1.5
2017-Nov-18 22:00N 40°48' W 073°47'4 7.9
2017-Nov-18 21:29N 40°48' W 073°52'4 8.0
2017-Nov-18 20:58N 40°46' W 073°57'4 8.3
2017-Nov-18 20:30N 40°42' W 073°59'4 8.5
2017-Nov-18 20:00N 40°39' W 074°03'3 5.3
2017-Nov-18 19:29N 40°39' W 074°07'0 0.0
2017-Nov-18 18:59N 40°39' W 074°07'0 0.0
2017-Nov-18 18:29N 40°39' W 074°07'0 0.0
2017-Nov-18 17:59N 40°39' W 074°07'0 0.0
2017-Nov-18 17:26N 40°39' W 074°07'0 0.0
2017-Nov-18 16:53N 40°39' W 074°07'0 0.0
2017-Nov-18 16:29N 40°39' W 074°07'0 0.0
2017-Nov-18 15:59N 40°39' W 074°07'0 0.0
2017-Nov-18 15:29N 40°39' W 074°07'0 0.0
2017-Nov-18 14:59N 40°39' W 074°07'0 0.0
2017-Nov-18 14:30N 40°39' W 074°07'0 0.0
2017-Nov-18 13:58N 40°39' W 074°07'0 0.0
2017-Nov-18 13:22N 40°39' W 074°07'0 0.0
2017-Nov-18 12:58N 40°39' W 074°07'0 0.0
2017-Nov-18 12:28N 40°39' W 074°07'0 0.0
2017-Nov-18 11:58N 40°39' W 074°07'0 0.0
2017-Nov-18 11:28N 40°39' W 074°07'0 0.0
2017-Nov-18 10:58N 40°39' W 074°07'0 0.0
2017-Nov-18 10:28N 40°39' W 074°07'0 0.0
2017-Nov-18 09:58N 40°39' W 074°07'0 0.0
2017-Nov-18 09:28N 40°39' W 074°07'0 0.0
2017-Nov-18 08:58N 40°39' W 074°07'0 0.0
2017-Nov-18 08:28N 40°39' W 074°07'0 0.0
2017-Nov-18 07:55N 40°39' W 074°07'0 0.0
2017-Nov-18 07:28N 40°39' W 074°07'0 0.4
2017-Nov-18 06:59N 40°39' W 074°07'0 0.4
2017-Nov-18 06:27N 40°39' W 074°07'0 0.0
2017-Nov-18 06:00N 40°39' W 074°07'0 0.0
2017-Nov-18 05:30N 40°39' W 074°07'0 0.0
2017-Nov-18 05:00N 40°39' W 074°07'0 0.0
2017-Nov-18 04:30N 40°39' W 074°07'0 0.0
2017-Nov-18 04:00N 40°39' W 074°07'0 0.0
2017-Nov-18 03:24N 40°39' W 074°07'0 0.0
2017-Nov-18 03:00N 40°39' W 074°07'0 0.0
2017-Nov-18 02:30N 40°39' W 074°07'0 0.0
2017-Nov-18 02:00N 40°39' W 074°07'0 0.0
2017-Nov-18 01:27N 40°39' W 074°07'0 0.0
2017-Nov-18 01:00N 40°39' W 074°07'0 0.0
2017-Nov-18 00:30N 40°39' W 074°07'0 0.0
2017-Nov-17 23:57N 40°39' W 074°07'0 0.0
2017-Nov-17 23:30N 40°39' W 074°07'0 0.0
2017-Nov-17 23:00N 40°39' W 074°07'0 0.0
2017-Nov-17 22:27N 40°39' W 074°07'0 0.1
2017-Nov-17 22:00N 40°39' W 074°07'1 1.3
2017-Nov-17 21:29N 40°38' W 074°08'0 0.0
2017-Nov-17 20:59N 40°38' W 074°08'0 0.0
2017-Nov-17 20:29N 40°38' W 074°08'0 0.0
2017-Nov-17 19:59N 40°38' W 074°08'0 0.2
2017-Nov-17 19:29N 40°39' W 074°08'1 1.4
2017-Nov-17 19:00N 40°39' W 074°07'0 0.1
2017-Nov-17 18:30N 40°39' W 074°07'1 2.6
2017-Nov-17 18:00N 40°39' W 074°05'4 7.5
2017-Nov-17 17:30N 40°42' W 074°02'611.5
2017-Nov-17 17:00N 40°47' W 073°60'2 3.3
2017-Nov-17 16:29N 40°49' W 073°58'0 0.1
2017-Nov-17 15:59N 40°49' W 073°58'0 0.3
2017-Nov-17 15:26N 40°49' W 073°58'0 0.0
2017-Nov-17 14:59N 40°49' W 073°58'0 0.1
2017-Nov-17 14:29N 40°49' W 073°58'0 0.0
2017-Nov-17 13:59N 40°49' W 073°58'0 0.0
2017-Nov-17 13:29N 40°49' W 073°58'0 0.0
2017-Nov-17 12:59N 40°49' W 073°58'0 0.0
2017-Nov-17 12:29N 40°49' W 073°58'0 0.0
2017-Nov-17 11:59N 40°49' W 073°58'0 0.1
2017-Nov-17 11:29N 40°49' W 073°58'0 0.0
2017-Nov-17 10:59N 40°49' W 073°58'0 0.1
2017-Nov-17 10:29N 40°49' W 073°58'0 0.2
2017-Nov-17 09:56N 40°49' W 073°58'0 0.0
2017-Nov-17 09:29N 40°49' W 073°58'0 0.0
2017-Nov-17 08:59N 40°49' W 073°58'0 0.1
2017-Nov-17 08:29N 40°49' W 073°58'0 0.0
2017-Nov-17 07:59N 40°49' W 073°58'0 0.0
2017-Nov-17 07:29N 40°49' W 073°58'0 0.0
2017-Nov-17 06:59N 40°49' W 073°58'0 0.0
2017-Nov-17 06:29N 40°49' W 073°58'0 0.0
2017-Nov-17 05:56N 40°49' W 073°58'0 0.0
2017-Nov-17 05:29N 40°49' W 073°58'0 0.0
2017-Nov-17 04:56N 40°49' W 073°59'0 0.0
2017-Nov-17 04:29N 40°49' W 073°58'0 0.0
2017-Nov-17 03:59N 40°49' W 073°58'0 0.0
2017-Nov-17 03:29N 40°49' W 073°58'0 0.1
2017-Nov-17 02:59N 40°49' W 073°58'0 0.3
2017-Nov-17 02:26N 40°49' W 073°58'0 0.1
2017-Nov-17 01:59N 40°49' W 073°58'0 0.1
2017-Nov-17 01:29N 40°49' W 073°58'0 0.0
2017-Nov-17 01:01N 40°49' W 073°58'2 3.6
2017-Nov-17 00:30N 40°47' W 073°59'510.1
2017-Nov-17 00:01N 40°43' W 074°01'3 5.6
2017-Nov-16 23:30N 40°40' W 074°02'0 0.0
2017-Nov-16 23:00N 40°40' W 074°02'0 0.0
2017-Nov-16 22:30N 40°40' W 074°02'0 0.1
2017-Nov-16 22:00N 40°40' W 074°02'0 0.1
2017-Nov-16 21:30N 40°40' W 074°02'0 0.1
2017-Nov-16 21:00N 40°40' W 074°02'0 0.0
2017-Nov-16 20:30N 40°40' W 074°02'0 0.0
2017-Nov-16 20:00N 40°40' W 074°02'0 0.0
2017-Nov-16 19:30N 40°40' W 074°02'0 0.2
2017-Nov-16 19:00N 40°40' W 074°03'0 0.0
2017-Nov-16 18:30N 40°40' W 074°03'0 0.1
2017-Nov-16 18:00N 40°40' W 074°03'0 0.1
2017-Nov-16 17:30N 40°40' W 074°03'0 0.0
2017-Nov-16 17:00N 40°40' W 074°03'0 0.0
2017-Nov-16 16:30N 40°40' W 074°03'0 0.0
2017-Nov-16 16:00N 40°40' W 074°03'0 0.2
2017-Nov-16 15:30N 40°40' W 074°02'0 0.2
2017-Nov-16 15:00N 40°40' W 074°02'0 0.0
2017-Nov-16 14:30N 40°40' W 074°02'0 0.1
2017-Nov-16 14:00N 40°40' W 074°02'0 0.1
2017-Nov-16 13:30N 40°40' W 074°02'0 0.0
2017-Nov-16 13:00N 40°40' W 074°02'0 0.0
2017-Nov-16 12:30N 40°40' W 074°03'0 0.0
2017-Nov-16 12:00N 40°40' W 074°02'0 0.1
2017-Nov-16 11:30N 40°40' W 074°02'0 0.1
2017-Nov-16 11:00N 40°40' W 074°03'0 0.1
2017-Nov-16 10:30N 40°40' W 074°03'0 0.0
2017-Nov-16 10:00N 40°40' W 074°03'0 0.0
2017-Nov-16 09:30N 40°40' W 074°03'0 0.1
2017-Nov-16 09:00N 40°40' W 074°03'0 0.1
2017-Nov-16 08:30N 40°40' W 074°03'0 0.2
2017-Nov-16 08:00N 40°40' W 074°03'0 0.1
2017-Nov-16 07:30N 40°40' W 074°03'0 0.0
2017-Nov-16 07:00N 40°40' W 074°03'0 0.0
2017-Nov-16 06:30N 40°40' W 074°03'0 0.0
2017-Nov-16 06:00N 40°40' W 074°03'0 0.0
2017-Nov-16 05:30N 40°40' W 074°03'0 0.0
2017-Nov-16 05:00N 40°40' W 074°03'0 0.0
2017-Nov-16 04:30N 40°40' W 074°03'0 0.1
2017-Nov-16 04:00N 40°40' W 074°03'0 0.1
2017-Nov-16 03:30N 40°40' W 074°03'0 0.0
2017-Nov-16 03:00N 40°40' W 074°03'0 0.1
2017-Nov-16 02:30N 40°40' W 074°03'0 0.0
2017-Nov-16 02:00N 40°40' W 074°03'0 0.3
2017-Nov-16 01:30N 40°40' W 074°03'1 1.7
2017-Nov-16 01:00N 40°39' W 074°03'5 9.9
2017-Nov-16 00:31N 40°34' W 074°02'5 9.2
2017-Nov-16 00:01N 40°31' W 073°58'5 9.4
2017-Nov-15 23:30N 40°30' W 073°52'5 9.5
2017-Nov-15 23:00N 40°30' W 073°46'128 8.5
2017-Nov-15 07:59N 41°34' W 071°19'4 8.2
2017-Nov-15 07:30N 41°38' W 071°18'4 8.3
2017-Nov-15 07:00N 41°42' W 071°19'4 8.3
2017-Nov-15 06:30N 41°45' W 071°22'4 7.5
2017-Nov-15 06:00N 41°49' W 071°24'0 0.0
2017-Nov-15 01:26N 41°49' W 071°24'0 0.0
2017-Nov-15 00:50N 41°49' W 071°24'0 0.0
2017-Nov-15 00:26N 41°49' W 071°24'0 0.0
2017-Nov-14 23:56N 41°49' W 071°24'0 0.0
2017-Nov-14 23:20N 41°49' W 071°24'0 0.0
2017-Nov-14 15:46N 41°49' W 071°24'0 1.3
2017-Nov-14 15:29N 41°48' W 071°24'3 5.8
2017-Nov-14 15:00N 41°46' W 071°23'4 7.9
2017-Nov-14 14:30N 41°42' W 071°20'4 7.9
2017-Nov-14 14:00N 41°39' W 071°18'4 7.5
2017-Nov-14 13:27N 41°34' W 071°19'4 7.9
2017-Nov-14 13:00N 41°31' W 071°20'39 6.9
2017-Nov-14 07:18N 41°14' W 072°07'3 8.8
2017-Nov-14 07:00N 41°13' W 072°11'5 9.4
2017-Nov-14 06:30N 41°11' W 072°17'5 9.8
2017-Nov-14 06:00N 41°10' W 072°23'5 9.7
2017-Nov-14 05:30N 41°09' W 072°29'5 9.6
2017-Nov-14 05:00N 41°08' W 072°35'  
Track history (hours):
 
Tides and Currents Weather Stations Pressure Air Temp Water Temp Dewpoint Dewpoint Depression Visibility Wind Speed Wind Dir Waves Ship Positions

B.franklin Reinauer

Owner: Reinauer Transportation Co.,LLC., STATEN ISLAND, NY. More information available from US FCC via Universal Licensing System and Coast Guard Vessel Documentation Center.

Last reported at 2017-Nov-24 00:12 UTC. Time now 2017-Nov-24 11:13 UTC.
Position N 40°29' W 073°45'.

Length 132 m; draft 6.5 m.

Type: . MMSI: 367539090.

Date/timePositionNaut miles runAvg speedWind from/ knotsBaromVisibWave heightAir tempDewpointWater temp
2017-Nov-24 00:12N 40°29' W 073°45'2 9.5
2017-Nov-24 00:00N 40°28' W 073°47'5 9.5
2017-Nov-23 23:30N 40°27' W 073°53'4 8.6
2017-Nov-23 23:00N 40°29' W 073°59'4 8.5
2017-Nov-23 22:30N 40°29' W 074°04'9 7.0
2017-Nov-23 21:16N 40°32' W 074°15'1 3.3
2017-Nov-23 21:00N 40°33' W 074°15'0 0.0
2017-Nov-23 20:30N 40°33' W 074°15'0 0.0
2017-Nov-23 19:58N 40°33' W 074°15'0 0.0
2017-Nov-23 13:05N 40°33' W 074°15'0 0.0
2017-Nov-23 12:47N 40°33' W 074°15'0 0.0
2017-Nov-23 03:28N 40°33' W 074°15'0 0.0
2017-Nov-23 02:41N 40°33' W 074°15'0 0.0
2017-Nov-23 02:16N 40°33' W 074°15'0 0.0
2017-Nov-23 01:59N 40°33' W 074°15'0 0.0
2017-Nov-22 23:16N 40°33' W 074°15'  
2017-Nov-19 19:50N 40°52' W 073°44'3 8.3
2017-Nov-19 19:30N 40°50' W 073°46'1 3.0
2017-Nov-19 19:00N 40°49' W 073°47'0 0.0
2017-Nov-19 18:30N 40°49' W 073°47'0 0.0
2017-Nov-19 15:45N 40°49' W 073°47'0 0.0
2017-Nov-19 15:18N 40°49' W 073°47'0 0.0
2017-Nov-18 23:07N 40°49' W 073°47'0 0.1
2017-Nov-18 22:50N 40°49' W 073°47'0 0.1
2017-Nov-18 22:27N 40°49' W 073°47'1 1.5
2017-Nov-18 22:00N 40°48' W 073°47'4 7.9
2017-Nov-18 21:29N 40°48' W 073°52'4 8.0
2017-Nov-18 20:58N 40°46' W 073°57'4 8.3
2017-Nov-18 20:30N 40°42' W 073°59'4 8.5
2017-Nov-18 20:00N 40°39' W 074°03'3 5.3
2017-Nov-18 19:29N 40°39' W 074°07'0 0.0
2017-Nov-18 18:59N 40°39' W 074°07'0 0.0
2017-Nov-18 18:29N 40°39' W 074°07'0 0.0
2017-Nov-18 17:59N 40°39' W 074°07'0 0.0
2017-Nov-18 17:26N 40°39' W 074°07'0 0.0
2017-Nov-18 16:53N 40°39' W 074°07'0 0.0
2017-Nov-18 16:29N 40°39' W 074°07'0 0.0
2017-Nov-18 15:59N 40°39' W 074°07'0 0.0
2017-Nov-18 15:29N 40°39' W 074°07'0 0.0
2017-Nov-18 14:59N 40°39' W 074°07'0 0.0
2017-Nov-18 14:30N 40°39' W 074°07'0 0.0
2017-Nov-18 13:58N 40°39' W 074°07'0 0.0
2017-Nov-18 13:22N 40°39' W 074°07'0 0.0
2017-Nov-18 12:58N 40°39' W 074°07'0 0.0
2017-Nov-18 12:28N 40°39' W 074°07'0 0.0
2017-Nov-18 11:58N 40°39' W 074°07'0 0.0
2017-Nov-18 11:28N 40°39' W 074°07'0 0.0
2017-Nov-18 10:58N 40°39' W 074°07'0 0.0
2017-Nov-18 10:28N 40°39' W 074°07'0 0.0
2017-Nov-18 09:58N 40°39' W 074°07'0 0.0
2017-Nov-18 09:28N 40°39' W 074°07'0 0.0
2017-Nov-18 08:58N 40°39' W 074°07'0 0.0
2017-Nov-18 08:28N 40°39' W 074°07'0 0.0
2017-Nov-18 07:55N 40°39' W 074°07'0 0.0
2017-Nov-18 07:28N 40°39' W 074°07'0 0.4
2017-Nov-18 06:59N 40°39' W 074°07'0 0.4
2017-Nov-18 06:27N 40°39' W 074°07'0 0.0
2017-Nov-18 06:00N 40°39' W 074°07'0 0.0
2017-Nov-18 05:30N 40°39' W 074°07'0 0.0
2017-Nov-18 05:00N 40°39' W 074°07'0 0.0
2017-Nov-18 04:30N 40°39' W 074°07'0 0.0
2017-Nov-18 04:00N 40°39' W 074°07'0 0.0
2017-Nov-18 03:24N 40°39' W 074°07'0 0.0
2017-Nov-18 03:00N 40°39' W 074°07'0 0.0
2017-Nov-18 02:30N 40°39' W 074°07'0 0.0
2017-Nov-18 02:00N 40°39' W 074°07'0 0.0
2017-Nov-18 01:27N 40°39' W 074°07'0 0.0
2017-Nov-18 01:00N 40°39' W 074°07'0 0.0
2017-Nov-18 00:30N 40°39' W 074°07'0 0.0
2017-Nov-17 23:57N 40°39' W 074°07'0 0.0
2017-Nov-17 23:30N 40°39' W 074°07'0 0.0
2017-Nov-17 23:00N 40°39' W 074°07'0 0.0
2017-Nov-17 22:27N 40°39' W 074°07'0 0.1
2017-Nov-17 22:00N 40°39' W 074°07'1 1.3
2017-Nov-17 21:29N 40°38' W 074°08'0 0.0
2017-Nov-17 20:59N 40°38' W 074°08'0 0.0
2017-Nov-17 20:29N 40°38' W 074°08'0 0.0
2017-Nov-17 19:59N 40°38' W 074°08'0 0.2
2017-Nov-17 19:29N 40°39' W 074°08'1 1.4
2017-Nov-17 19:00N 40°39' W 074°07'0 0.1
2017-Nov-17 18:30N 40°39' W 074°07'1 2.6
2017-Nov-17 18:00N 40°39' W 074°05'4 7.5
2017-Nov-17 17:30N 40°42' W 074°02'611.5
2017-Nov-17 17:00N 40°47' W 073°60'2 3.3
2017-Nov-17 16:29N 40°49' W 073°58'0 0.1
2017-Nov-17 15:59N 40°49' W 073°58'0 0.3
2017-Nov-17 15:26N 40°49' W 073°58'0 0.0
2017-Nov-17 14:59N 40°49' W 073°58'0 0.1
2017-Nov-17 14:29N 40°49' W 073°58'0 0.0
2017-Nov-17 13:59N 40°49' W 073°58'0 0.0
2017-Nov-17 13:29N 40°49' W 073°58'0 0.0
2017-Nov-17 12:59N 40°49' W 073°58'0 0.0
2017-Nov-17 12:29N 40°49' W 073°58'0 0.0
2017-Nov-17 11:59N 40°49' W 073°58'0 0.1
2017-Nov-17 11:29N 40°49' W 073°58'0 0.0
2017-Nov-17 10:59N 40°49' W 073°58'0 0.1
2017-Nov-17 10:29N 40°49' W 073°58'0 0.2
2017-Nov-17 09:56N 40°49' W 073°58'0 0.0
2017-Nov-17 09:29N 40°49' W 073°58'0 0.0
2017-Nov-17 08:59N 40°49' W 073°58'0 0.1
2017-Nov-17 08:29N 40°49' W 073°58'0 0.0
2017-Nov-17 07:59N 40°49' W 073°58'0 0.0
2017-Nov-17 07:29N 40°49' W 073°58'0 0.0
2017-Nov-17 06:59N 40°49' W 073°58'0 0.0
2017-Nov-17 06:29N 40°49' W 073°58'0 0.0
2017-Nov-17 05:56N 40°49' W 073°58'0 0.0
2017-Nov-17 05:29N 40°49' W 073°58'0 0.0
2017-Nov-17 04:56N 40°49' W 073°59'0 0.0
2017-Nov-17 04:29N 40°49' W 073°58'0 0.0
2017-Nov-17 03:59N 40°49' W 073°58'0 0.0
2017-Nov-17 03:29N 40°49' W 073°58'0 0.1
2017-Nov-17 02:59N 40°49' W 073°58'0 0.3
2017-Nov-17 02:26N 40°49' W 073°58'0 0.1
2017-Nov-17 01:59N 40°49' W 073°58'0 0.1
2017-Nov-17 01:29N 40°49' W 073°58'0 0.0
2017-Nov-17 01:01N 40°49' W 073°58'2 3.6
2017-Nov-17 00:30N 40°47' W 073°59'510.1
2017-Nov-17 00:01N 40°43' W 074°01'3 5.6
2017-Nov-16 23:30N 40°40' W 074°02'0 0.0
2017-Nov-16 23:00N 40°40' W 074°02'0 0.0
2017-Nov-16 22:30N 40°40' W 074°02'0 0.1
2017-Nov-16 22:00N 40°40' W 074°02'0 0.1
2017-Nov-16 21:30N 40°40' W 074°02'0 0.1
2017-Nov-16 21:00N 40°40' W 074°02'0 0.0
2017-Nov-16 20:30N 40°40' W 074°02'0 0.0
2017-Nov-16 20:00N 40°40' W 074°02'0 0.0
2017-Nov-16 19:30N 40°40' W 074°02'0 0.2
2017-Nov-16 19:00N 40°40' W 074°03'0 0.0
2017-Nov-16 18:30N 40°40' W 074°03'0 0.1
2017-Nov-16 18:00N 40°40' W 074°03'0 0.1
2017-Nov-16 17:30N 40°40' W 074°03'0 0.0
2017-Nov-16 17:00N 40°40' W 074°03'0 0.0
2017-Nov-16 16:30N 40°40' W 074°03'0 0.0
2017-Nov-16 16:00N 40°40' W 074°03'0 0.2
2017-Nov-16 15:30N 40°40' W 074°02'0 0.2
2017-Nov-16 15:00N 40°40' W 074°02'0 0.0
2017-Nov-16 14:30N 40°40' W 074°02'0 0.1
2017-Nov-16 14:00N 40°40' W 074°02'0 0.1
2017-Nov-16 13:30N 40°40' W 074°02'0 0.0
2017-Nov-16 13:00N 40°40' W 074°02'0 0.0
2017-Nov-16 12:30N 40°40' W 074°03'0 0.0
2017-Nov-16 12:00N 40°40' W 074°02'0 0.1
2017-Nov-16 11:30N 40°40' W 074°02'0 0.1
2017-Nov-16 11:00N 40°40' W 074°03'0 0.1
2017-Nov-16 10:30N 40°40' W 074°03'0 0.0
2017-Nov-16 10:00N 40°40' W 074°03'0 0.0
2017-Nov-16 09:30N 40°40' W 074°03'0 0.1
2017-Nov-16 09:00N 40°40' W 074°03'0 0.1
2017-Nov-16 08:30N 40°40' W 074°03'0 0.2
2017-Nov-16 08:00N 40°40' W 074°03'0 0.1
2017-Nov-16 07:30N 40°40' W 074°03'0 0.0
2017-Nov-16 07:00N 40°40' W 074°03'0 0.0
2017-Nov-16 06:30N 40°40' W 074°03'0 0.0
2017-Nov-16 06:00N 40°40' W 074°03'0 0.0
2017-Nov-16 05:30N 40°40' W 074°03'0 0.0
2017-Nov-16 05:00N 40°40' W 074°03'0 0.0
2017-Nov-16 04:30N 40°40' W 074°03'0 0.1
2017-Nov-16 04:00N 40°40' W 074°03'0 0.1
2017-Nov-16 03:30N 40°40' W 074°03'0 0.0
2017-Nov-16 03:00N 40°40' W 074°03'0 0.1
2017-Nov-16 02:30N 40°40' W 074°03'0 0.0
2017-Nov-16 02:00N 40°40' W 074°03'0 0.3
2017-Nov-16 01:30N 40°40' W 074°03'1 1.7
2017-Nov-16 01:00N 40°39' W 074°03'5 9.9
2017-Nov-16 00:31N 40°34' W 074°02'5 9.2
2017-Nov-16 00:01N 40°31' W 073°58'5 9.4
2017-Nov-15 23:30N 40°30' W 073°52'5 9.5
2017-Nov-15 23:00N 40°30' W 073°46'128 8.5
2017-Nov-15 07:59N 41°34' W 071°19'4 8.2
2017-Nov-15 07:30N 41°38' W 071°18'4 8.3
2017-Nov-15 07:00N 41°42' W 071°19'4 8.3
2017-Nov-15 06:30N 41°45' W 071°22'4 7.5
2017-Nov-15 06:00N 41°49' W 071°24'0 0.0
2017-Nov-15 01:26N 41°49' W 071°24'0 0.0
2017-Nov-15 00:50N 41°49' W 071°24'0 0.0
2017-Nov-15 00:26N 41°49' W 071°24'0 0.0
2017-Nov-14 23:56N 41°49' W 071°24'0 0.0
2017-Nov-14 23:20N 41°49' W 071°24'0 0.0
2017-Nov-14 15:46N 41°49' W 071°24'0 1.3
2017-Nov-14 15:29N 41°48' W 071°24'3 5.8
2017-Nov-14 15:00N 41°46' W 071°23'4 7.9
2017-Nov-14 14:30N 41°42' W 071°20'4 7.9
2017-Nov-14 14:00N 41°39' W 071°18'4 7.5
2017-Nov-14 13:27N 41°34' W 071°19'4 7.9
2017-Nov-14 13:00N 41°31' W 071°20'39 6.9
2017-Nov-14 07:18N 41°14' W 072°07'3 8.8
2017-Nov-14 07:00N 41°13' W 072°11'5 9.4
2017-Nov-14 06:30N 41°11' W 072°17'5 9.8
2017-Nov-14 06:00N 41°10' W 072°23'5 9.7
2017-Nov-14 05:30N 41°09' W 072°29'5 9.6
2017-Nov-14 05:00N 41°08' W 072°35'  

Dump ship's entire track history